Aviation Digital Data Service (ADDS)

Output produced by METARs form (0022 UTC 21 August 2014)
found at http://aviationweather.gov/adds/metars/
 
KGSP 202337Z 2100/2124 28006KT P6SM VCSH SCT070 BKN250 
     FM210200 00000KT P6SM BKN250 
     FM211300 02004KT P6SM SCT250 
     FM211800 26005KT P6SM SCT070